sensor_id;sensor_type;location;lat;lon;timestamp;pressure;altitude;pressure_sealevel;temperature;humidity
20160;BME280;50187;50.492;12.134;2022-10-28T00:00:14;98415.91;;;21.60;47.12
20160;BME280;50187;50.492;12.134;2022-10-28T00:03:01;98423.47;;;21.56;46.96
20160;BME280;50187;50.492;12.134;2022-10-28T00:05:47;98412.09;;;21.53;47.17
20160;BME280;50187;50.492;12.134;2022-10-28T00:08:32;98398.69;;;21.51;47.19
20160;BME280;50187;50.492;12.134;2022-10-28T00:11:21;98396.97;;;21.50;47.16
20160;BME280;50187;50.492;12.134;2022-10-28T00:14:08;98389.16;;;21.47;47.20
20160;BME280;50187;50.492;12.134;2022-10-28T00:16:53;98383.06;;;21.45;47.24
20160;BME280;50187;50.492;12.134;2022-10-28T00:19:38;98376.75;;;21.44;47.33
20160;BME280;50187;50.492;12.134;2022-10-28T00:22:23;98367.97;;;21.42;47.25
20160;BME280;50187;50.492;12.134;2022-10-28T00:25:09;98379.78;;;21.41;46.99
20160;BME280;50187;50.492;12.134;2022-10-28T00:27:54;98381.66;;;21.41;47.12
20160;BME280;50187;50.492;12.134;2022-10-28T00:30:39;98380.94;;;21.39;47.33
20160;BME280;50187;50.492;12.134;2022-10-28T00:33:24;98385.66;;;21.37;47.18
20160;BME280;50187;50.492;12.134;2022-10-28T00:36:15;98387.50;;;21.36;47.17
20160;BME280;50187;50.492;12.134;2022-10-28T00:39:02;98379.69;;;21.33;47.36
20160;BME280;50187;50.492;12.134;2022-10-28T00:41:58;98385.09;;;21.33;47.16
20160;BME280;50187;50.492;12.134;2022-10-28T00:44:55;98390.66;;;21.32;47.45
20160;BME280;50187;50.492;12.134;2022-10-28T00:48:13;98391.66;;;21.31;47.29
20160;BME280;50187;50.492;12.134;2022-10-28T00:50:59;98384.56;;;21.30;47.40
20160;BME280;50187;50.492;12.134;2022-10-28T00:53:45;98388.25;;;21.28;47.29
20160;BME280;50187;50.492;12.134;2022-10-28T00:56:36;98380.97;;;21.29;47.05
20160;BME280;50187;50.492;12.134;2022-10-28T00:59:28;98382.16;;;21.26;47.13
20160;BME280;50187;50.492;12.134;2022-10-28T01:02:15;98379.28;;;21.28;47.30
20160;BME280;50187;50.492;12.134;2022-10-28T01:05:00;98382.00;;;21.28;47.18
20160;BME280;50187;50.492;12.134;2022-10-28T01:07:46;98371.34;;;21.26;47.31
20160;BME280;50187;50.492;12.134;2022-10-28T01:11:07;98361.81;;;21.22;47.24
20160;BME280;50187;50.492;12.134;2022-10-28T01:20:43;98373.63;;;21.21;47.11
20160;BME280;50187;50.492;12.134;2022-10-28T01:39:34;98355.28;;;21.15;47.26
20160;BME280;50187;50.492;12.134;2022-10-28T01:42:33;98350.00;;;21.14;47.38
20160;BME280;50187;50.492;12.134;2022-10-28T01:45:33;98347.44;;;21.12;47.29
20160;BME280;50187;50.492;12.134;2022-10-28T01:48:31;98351.19;;;21.11;47.35
20160;BME280;50187;50.492;12.134;2022-10-28T01:51:34;98349.31;;;21.12;47.50
20160;BME280;50187;50.492;12.134;2022-10-28T01:54:23;98344.06;;;21.10;47.29
20160;BME280;50187;50.492;12.134;2022-10-28T01:57:12;98342.66;;;21.06;47.44
20160;BME280;50187;50.492;12.134;2022-10-28T02:00:00;98335.22;;;21.08;47.38
20160;BME280;50187;50.492;12.134;2022-10-28T02:02:56;98337.09;;;21.07;47.26
20160;BME280;50187;50.492;12.134;2022-10-28T02:14:20;98353.63;;;21.04;47.60
20160;BME280;50187;50.492;12.134;2022-10-28T02:17:12;98343.94;;;21.02;47.40
20160;BME280;50187;50.492;12.134;2022-10-28T02:20:40;98347.66;;;21.01;47.49
20160;BME280;50187;50.492;12.134;2022-10-28T02:24:05;98349.50;;;21.00;47.38
20160;BME280;50187;50.492;12.134;2022-10-28T02:26:49;98354.06;;;21.00;47.39
20160;BME280;50187;50.492;12.134;2022-10-28T02:29:40;98350.50;;;20.99;47.44
20160;BME280;50187;50.492;12.134;2022-10-28T02:32:32;98346.97;;;20.99;47.41
20160;BME280;50187;50.492;12.134;2022-10-28T02:38:21;98344.41;;;20.97;47.57
20160;BME280;50187;50.492;12.134;2022-10-28T02:41:15;98337.97;;;20.98;47.36
20160;BME280;50187;50.492;12.134;2022-10-28T02:44:05;98344.41;;;20.97;47.56
20160;BME280;50187;50.492;12.134;2022-10-28T02:46:52;98339.16;;;20.96;47.36
20160;BME280;50187;50.492;12.134;2022-10-28T02:49:42;98336.59;;;20.94;47.43
20160;BME280;50187;50.492;12.134;2022-10-28T02:52:30;98333.88;;;20.94;47.46
20160;BME280;50187;50.492;12.134;2022-10-28T02:55:17;98332.19;;;20.93;47.63
20160;BME280;50187;50.492;12.134;2022-10-28T02:58:04;98330.63;;;20.90;47.68
20160;BME280;50187;50.492;12.134;2022-10-28T03:00:50;98341.13;;;20.93;47.52
20160;BME280;50187;50.492;12.134;2022-10-28T03:03:35;98334.00;;;20.92;47.65
20160;BME280;50187;50.492;12.134;2022-10-28T03:06:20;98339.56;;;20.91;47.32
20160;BME280;50187;50.492;12.134;2022-10-28T03:09:06;98334.31;;;20.89;47.33
20160;BME280;50187;50.492;12.134;2022-10-28T03:11:51;98335.88;;;20.92;47.54
20160;BME280;50187;50.492;12.134;2022-10-28T03:14:36;98329.78;;;20.90;47.67
20160;BME280;50187;50.492;12.134;2022-10-28T03:17:21;98324.09;;;20.83;47.68
20160;BME280;50187;50.492;12.134;2022-10-28T03:20:07;98329.06;;;20.88;47.40
20160;BME280;50187;50.492;12.134;2022-10-28T03:22:52;98335.44;;;20.87;47.47
20160;BME280;50187;50.492;12.134;2022-10-28T03:25:37;98322.66;;;20.89;47.52
20160;BME280;50187;50.492;12.134;2022-10-28T03:28:23;98315.38;;;20.89;47.44
20160;BME280;50187;50.492;12.134;2022-10-28T03:31:07;98319.09;;;20.88;47.50
20160;BME280;50187;50.492;12.134;2022-10-28T03:33:52;98322.66;;;20.89;47.39
20160;BME280;50187;50.492;12.134;2022-10-28T03:36:37;98318.38;;;20.86;47.38
20160;BME280;50187;50.492;12.134;2022-10-28T03:39:23;98320.94;;;20.88;47.53
20160;BME280;50187;50.492;12.134;2022-10-28T03:42:08;98320.56;;;20.83;47.60
20160;BME280;50187;50.492;12.134;2022-10-28T03:44:53;98319.00;;;20.80;47.38
20160;BME280;50187;50.492;12.134;2022-10-28T03:47:38;98315.56;;;20.78;47.71
20160;BME280;50187;50.492;12.134;2022-10-28T03:50:23;98314.72;;;20.78;47.70
20160;BME280;50187;50.492;12.134;2022-10-28T03:53:09;98306.47;;;20.79;47.40
20160;BME280;50187;50.492;12.134;2022-10-28T03:55:55;98310.16;;;20.78;47.67
20160;BME280;50187;50.492;12.134;2022-10-28T03:58:40;98306.47;;;20.79;47.57
20160;BME280;50187;50.492;12.134;2022-10-28T04:01:25;98320.97;;;20.78;47.47
20160;BME280;50187;50.492;12.134;2022-10-28T04:04:11;98315.88;;;20.75;47.53
20160;BME280;50187;50.492;12.134;2022-10-28T04:06:56;98318.28;;;20.78;47.62
20160;BME280;50187;50.492;12.134;2022-10-28T04:09:40;98314.16;;;20.74;47.38
20160;BME280;50187;50.492;12.134;2022-10-28T04:12:26;98320.44;;;20.74;47.44
20160;BME280;50187;50.492;12.134;2022-10-28T04:15:11;98317.88;;;20.73;47.56
20160;BME280;50187;50.492;12.134;2022-10-28T04:17:57;98325.28;;;20.71;47.74
20160;BME280;50187;50.492;12.134;2022-10-28T04:20:43;98327.28;;;20.69;47.63
20160;BME280;50187;50.492;12.134;2022-10-28T04:23:29;98323.56;;;20.70;47.87
20160;BME280;50187;50.492;12.134;2022-10-28T04:26:14;98325.44;;;20.69;47.67
20160;BME280;50187;50.492;12.134;2022-10-28T04:28:59;98327.28;;;20.69;47.64
20160;BME280;50187;50.492;12.134;2022-10-28T04:31:44;98324.75;;;20.67;47.47
20160;BME280;50187;50.492;12.134;2022-10-28T04:34:35;98326.53;;;20.67;47.49
20160;BME280;50187;50.492;12.134;2022-10-28T04:37:20;98323.84;;;20.67;47.77
20160;BME280;50187;50.492;12.134;2022-10-28T04:40:06;98323.13;;;20.65;47.68
20160;BME280;50187;50.492;12.134;2022-10-28T04:42:51;98321.28;;;20.65;47.51
20160;BME280;50187;50.492;12.134;2022-10-28T04:45:37;98316.72;;;20.66;47.57
20160;BME280;50187;50.492;12.134;2022-10-28T04:48:23;98314.31;;;20.63;47.66
20160;BME280;50187;50.492;12.134;2022-10-28T04:51:08;98316.88;;;20.64;47.59
20160;BME280;50187;50.492;12.134;2022-10-28T04:53:53;98317.88;;;20.63;47.71
20160;BME280;50187;50.492;12.134;2022-10-28T04:56:38;98318.03;;;20.62;47.63
20160;BME280;50187;50.492;12.134;2022-10-28T04:59:23;98316.03;;;20.64;47.77
20160;BME280;50187;50.492;12.134;2022-10-28T05:02:08;98316.03;;;20.64;47.75
20160;BME280;50187;50.492;12.134;2022-10-28T05:04:53;98313.16;;;20.65;47.72
20160;BME280;50187;50.492;12.134;2022-10-28T05:07:38;98307.06;;;20.63;47.61
20160;BME280;50187;50.492;12.134;2022-10-28T05:10:24;98312.47;;;20.63;47.68
20160;BME280;50187;50.492;12.134;2022-10-28T05:13:10;98303.66;;;20.61;47.71
20160;BME280;50187;50.492;12.134;2022-10-28T05:15:55;98302.81;;;20.61;47.59
20160;BME280;50187;50.492;12.134;2022-10-28T05:18:40;98306.19;;;20.63;47.47
20160;BME280;50187;50.492;12.134;2022-10-28T05:21:26;98298.25;;;20.61;47.42
20160;BME280;50187;50.492;12.134;2022-10-28T05:24:11;98298.25;;;20.61;47.36
20160;BME280;50187;50.492;12.134;2022-10-28T05:26:58;98300.94;;;20.61;47.63
20160;BME280;50187;50.492;12.134;2022-10-28T05:29:44;98311.91;;;20.59;47.66
20160;BME280;50187;50.492;12.134;2022-10-28T05:32:29;98311.06;;;20.59;47.66
20160;BME280;50187;50.492;12.134;2022-10-28T05:35:14;98318.31;;;20.58;47.57
20160;BME280;50187;50.492;12.134;2022-10-28T05:37:59;98312.75;;;20.60;47.61
20160;BME280;50187;50.492;12.134;2022-10-28T05:40:44;98315.59;;;20.58;47.41
20160;BME280;50187;50.492;12.134;2022-10-28T05:43:29;98321.00;;;20.58;47.37
20160;BME280;50187;50.492;12.134;2022-10-28T05:46:14;98326.41;;;20.58;47.47
20160;BME280;50187;50.492;12.134;2022-10-28T05:48:59;98348.03;;;20.58;47.50
20160;BME280;50187;50.492;12.134;2022-10-28T05:51:45;98332.69;;;20.59;47.54
20160;BME280;50187;50.492;12.134;2022-10-28T05:54:30;98335.41;;;20.59;47.59
20160;BME280;50187;50.492;12.134;2022-10-28T05:57:15;98338.50;;;20.54;47.54
20160;BME280;50187;50.492;12.134;2022-10-28T06:00:01;98342.38;;;20.52;47.81
20160;BME280;50187;50.492;12.134;2022-10-28T06:03:04;98338.84;;;20.32;49.01
20160;BME280;50187;50.492;12.134;2022-10-28T06:05:53;98347.97;;;20.21;49.51
20160;BME280;50187;50.492;12.134;2022-10-28T06:08:38;98356.94;;;20.12;49.63
20160;BME280;50187;50.492;12.134;2022-10-28T06:11:23;98345.59;;;19.98;50.48
20160;BME280;50187;50.492;12.134;2022-10-28T06:14:08;98357.22;;;19.89;50.96
20160;BME280;50187;50.492;12.134;2022-10-28T06:16:54;98356.78;;;19.84;50.89
20160;BME280;50187;50.492;12.134;2022-10-28T06:19:38;98357.47;;;19.76;51.26
20160;BME280;50187;50.492;12.134;2022-10-28T06:22:23;98350.63;;;19.72;51.45
20160;BME280;50187;50.492;12.134;2022-10-28T06:25:08;98360.00;;;19.68;51.57
20160;BME280;50187;50.492;12.134;2022-10-28T06:27:58;98365.69;;;19.65;51.65
20160;BME280;50187;50.492;12.134;2022-10-28T06:30:43;98359.03;;;19.69;51.53
20160;BME280;50187;50.492;12.134;2022-10-28T06:33:28;98359.72;;;19.71;51.67
20160;BME280;50187;50.492;12.134;2022-10-28T06:36:13;98362.63;;;19.79;51.41
20160;BME280;50187;50.492;12.134;2022-10-28T06:38:58;98359.22;;;19.97;50.76
20160;BME280;50187;50.492;12.134;2022-10-28T06:41:43;98373.72;;;20.05;50.79
20160;BME280;50187;50.492;12.134;2022-10-28T06:44:28;98374.13;;;20.20;50.98
20160;BME280;50187;50.492;12.134;2022-10-28T06:47:13;98374.84;;;20.42;50.42
20160;BME280;50187;50.492;12.134;2022-10-28T06:49:58;98381.88;;;20.63;50.20
20160;BME280;50187;50.492;12.134;2022-10-28T06:52:43;98384.72;;;20.81;49.38
20160;BME280;50187;50.492;12.134;2022-10-28T06:55:29;98395.06;;;20.95;49.03
20160;BME280;50187;50.492;12.134;2022-10-28T06:58:14;98395.75;;;21.07;48.85
20160;BME280;50187;50.492;12.134;2022-10-28T07:01:04;98401.41;;;21.14;48.78
20160;BME280;50187;50.492;12.134;2022-10-28T07:03:49;98411.34;;;21.23;48.49
20160;BME280;50187;50.492;12.134;2022-10-28T07:06:34;98409.34;;;21.25;48.58
20160;BME280;50187;50.492;12.134;2022-10-28T07:09:19;98407.47;;;21.35;48.31
20160;BME280;50187;50.492;12.134;2022-10-28T07:12:05;98408.97;;;21.48;47.92
20160;BME280;50187;50.492;12.134;2022-10-28T07:14:51;98396.41;;;21.56;47.90
20160;BME280;50187;50.492;12.134;2022-10-28T07:17:36;98404.63;;;21.65;47.71
20160;BME280;50187;50.492;12.134;2022-10-28T07:20:22;98405.72;;;21.72;47.60
20160;BME280;50187;50.492;12.134;2022-10-28T07:23:08;98401.88;;;21.74;47.26
20160;BME280;50187;50.492;12.134;2022-10-28T07:25:54;98403.38;;;21.77;47.46
20160;BME280;50187;50.492;12.134;2022-10-28T07:28:39;98405.81;;;21.80;47.20
20160;BME280;50187;50.492;12.134;2022-10-28T07:31:26;98394.59;;;21.75;47.13
20160;BME280;50187;50.492;12.134;2022-10-28T07:34:11;98409.91;;;21.84;47.18
20160;BME280;50187;50.492;12.134;2022-10-28T07:36:56;98415.72;;;21.89;47.16
20160;BME280;50187;50.492;12.134;2022-10-28T07:39:41;98411.38;;;21.96;46.99
20160;BME280;50187;50.492;12.134;2022-10-28T07:42:26;98410.06;;;22.01;46.98
20160;BME280;50187;50.492;12.134;2022-10-28T07:45:11;98404.91;;;22.07;46.90
20160;BME280;50187;50.492;12.134;2022-10-28T07:47:57;98401.19;;;22.08;46.56
20160;BME280;50187;50.492;12.134;2022-10-28T07:50:41;98402.03;;;22.09;46.53
20160;BME280;50187;50.492;12.134;2022-10-28T07:53:27;98404.06;;;22.07;46.79
20160;BME280;50187;50.492;12.134;2022-10-28T07:56:12;98382.38;;;22.07;46.54
20160;BME280;50187;50.492;12.134;2022-10-28T07:58:59;98385.78;;;22.09;46.64
20160;BME280;50187;50.492;12.134;2022-10-28T08:01:44;98388.81;;;22.06;46.69
20160;BME280;50187;50.492;12.134;2022-10-28T08:04:31;98386.09;;;22.06;47.10
20160;BME280;50187;50.492;12.134;2022-10-28T08:07:17;98389.13;;;22.03;46.80
20160;BME280;50187;50.492;12.134;2022-10-28T08:10:02;98395.53;;;22.02;47.04
20160;BME280;50187;50.492;12.134;2022-10-28T08:12:47;98391.50;;;22.06;47.01
20160;BME280;50187;50.492;12.134;2022-10-28T08:15:32;98391.19;;;22.09;47.08
20160;BME280;50187;50.492;12.134;2022-10-28T08:18:17;98384.94;;;22.08;46.72
20160;BME280;50187;50.492;12.134;2022-10-28T08:21:04;98384.47;;;22.13;47.01
20160;BME280;50187;50.492;12.134;2022-10-28T08:23:49;98374.94;;;22.09;47.04
20160;BME280;50187;50.492;12.134;2022-10-28T08:26:35;98379.38;;;22.10;47.11
20160;BME280;50187;50.492;12.134;2022-10-28T08:29:20;98382.06;;;22.10;47.25
20160;BME280;50187;50.492;12.134;2022-10-28T08:32:09;98378.66;;;22.08;46.99
20160;BME280;50187;50.492;12.134;2022-10-28T08:34:54;98368.84;;;22.07;47.01
20160;BME280;50187;50.492;12.134;2022-10-28T08:37:38;98366.25;;;22.05;47.05
20160;BME280;50187;50.492;12.134;2022-10-28T08:40:33;98371.69;;;22.05;47.08
20160;BME280;50187;50.492;12.134;2022-10-28T08:47:09;98379.59;;;21.99;47.27
20160;BME280;50187;50.492;12.134;2022-10-28T08:50:03;98378.56;;;22.00;47.34
20160;BME280;50187;50.492;12.134;2022-10-28T08:52:53;98378.72;;;21.98;47.23
20160;BME280;50187;50.492;12.134;2022-10-28T08:55:49;98378.88;;;21.96;47.47
20160;BME280;50187;50.492;12.134;2022-10-28T08:58:35;98377.41;;;22.02;47.28
20160;BME280;50187;50.492;12.134;2022-10-28T09:01:34;98372.53;;;22.06;47.34
20160;BME280;50187;50.492;12.134;2022-10-28T09:04:38;98362.94;;;22.11;47.36
20160;BME280;50187;50.492;12.134;2022-10-28T09:07:24;98371.34;;;22.26;47.14
20160;BME280;50187;50.492;12.134;2022-10-28T09:10:13;98360.16;;;22.39;46.96
20160;BME280;50187;50.492;12.134;2022-10-28T09:13:16;98341.88;;;22.41;46.87
20160;BME280;50187;50.492;12.134;2022-10-28T09:16:20;98361.75;;;22.50;46.62
20160;BME280;50187;50.492;12.134;2022-10-28T09:25:02;98348.91;;;22.52;46.44
20160;BME280;50187;50.492;12.134;2022-10-28T09:31:03;98329.38;;;22.49;46.21
20160;BME280;50187;50.492;12.134;2022-10-28T09:34:03;98316.47;;;22.42;46.43
20160;BME280;50187;50.492;12.134;2022-10-28T09:36:54;98305.41;;;22.36;46.66
20160;BME280;50187;50.492;12.134;2022-10-28T09:39:48;98283.13;;;22.32;46.77
20160;BME280;50187;50.492;12.134;2022-10-28T09:42:41;98259.06;;;22.29;46.98
20160;BME280;50187;50.492;12.134;2022-10-28T09:45:30;98273.78;;;22.26;46.98
20160;BME280;50187;50.492;12.134;2022-10-28T09:48:22;98301.22;;;22.23;46.89
20160;BME280;50187;50.492;12.134;2022-10-28T09:51:25;98307.63;;;22.22;47.12
20160;BME280;50187;50.492;12.134;2022-10-28T09:54:12;98306.94;;;22.20;47.28
20160;BME280;50187;50.492;12.134;2022-10-28T09:56:58;98293.41;;;22.20;47.23
20160;BME280;50187;50.492;12.134;2022-10-28T09:59:44;98308.13;;;22.18;47.18
20160;BME280;50187;50.492;12.134;2022-10-28T10:02:31;98315.25;;;22.19;47.25
20160;BME280;50187;50.492;12.134;2022-10-28T10:05:17;98316.72;;;22.13;47.24
20160;BME280;50187;50.492;12.134;2022-10-28T10:08:04;98311.97;;;22.15;47.45
20160;BME280;50187;50.492;12.134;2022-10-28T10:10:52;98311.38;;;22.21;47.60
20160;BME280;50187;50.492;12.134;2022-10-28T10:13:40;98314.75;;;22.23;47.46
20160;BME280;50187;50.492;12.134;2022-10-28T10:16:38;98317.84;;;22.28;47.31
20160;BME280;50187;50.492;12.134;2022-10-28T10:19:24;98314.00;;;22.31;47.16
20160;BME280;50187;50.492;12.134;2022-10-28T10:22:28;98314.53;;;22.35;47.33
20160;BME280;50187;50.492;12.134;2022-10-28T10:28:04;98301.69;;;22.37;47.07
20160;BME280;50187;50.492;12.134;2022-10-28T10:31:04;98305.06;;;22.39;46.93
20160;BME280;50187;50.492;12.134;2022-10-28T10:33:55;98301.53;;;22.38;46.95
20160;BME280;50187;50.492;12.134;2022-10-28T10:36:48;98301.38;;;22.40;47.12
20160;BME280;50187;50.492;12.134;2022-10-28T10:39:35;98295.94;;;22.40;47.31
20160;BME280;50187;50.492;12.134;2022-10-28T10:42:21;98291.00;;;22.35;47.45
20160;BME280;50187;50.492;12.134;2022-10-28T10:48:20;98282.22;;;22.41;47.48
20160;BME280;50187;50.492;12.134;2022-10-28T10:51:11;98281.06;;;22.44;47.10
20160;BME280;50187;50.492;12.134;2022-10-28T10:53:59;98273.78;;;22.44;47.38
20160;BME280;50187;50.492;12.134;2022-10-28T10:56:45;98275.47;;;22.45;47.25
20160;BME280;50187;50.492;12.134;2022-10-28T10:59:30;98271.78;;;22.46;47.12
20160;BME280;50187;50.492;12.134;2022-10-28T11:02:34;98263.31;;;22.50;47.40
20160;BME280;50187;50.492;12.134;2022-10-28T11:05:23;98260.94;;;22.55;47.02
20160;BME280;50187;50.492;12.134;2022-10-28T11:08:38;98250.97;;;22.55;47.03
20160;BME280;50187;50.492;12.134;2022-10-28T11:14:23;98264.97;;;22.77;46.47
20160;BME280;50187;50.492;12.134;2022-10-28T11:17:23;98261.06;;;22.79;46.61
20160;BME280;50187;50.492;12.134;2022-10-28T11:20:25;98262.03;;;22.70;46.63
20160;BME280;50187;50.492;12.134;2022-10-28T11:26:21;98260.00;;;22.64;46.96
20160;BME280;50187;50.492;12.134;2022-10-28T11:29:10;98260.16;;;22.62;47.08
20160;BME280;50187;50.492;12.134;2022-10-28T11:32:07;98243.72;;;22.64;46.98
20160;BME280;50187;50.492;12.134;2022-10-28T11:38:11;98237.19;;;22.83;46.85
20160;BME280;50187;50.492;12.134;2022-10-28T11:41:36;98237.72;;;22.87;46.26
20160;BME280;50187;50.492;12.134;2022-10-28T11:56:47;98243.47;;;22.84;44.74
20160;BME280;50187;50.492;12.134;2022-10-28T11:59:55;98242.25;;;22.78;44.74
20160;BME280;50187;50.492;12.134;2022-10-28T12:03:03;98234.78;;;22.72;44.73
20160;BME280;50187;50.492;12.134;2022-10-28T12:15:20;98213.00;;;22.55;45.25
20160;BME280;50187;50.492;12.134;2022-10-28T12:18:24;98204.88;;;22.55;45.34
20160;BME280;50187;50.492;12.134;2022-10-28T12:24:05;98199.56;;;22.45;45.50
20160;BME280;50187;50.492;12.134;2022-10-28T12:26:56;98205.13;;;22.36;45.70
20160;BME280;50187;50.492;12.134;2022-10-28T12:29:47;98205.56;;;22.31;45.82
20160;BME280;50187;50.492;12.134;2022-10-28T12:32:34;98204.88;;;22.29;45.85
20160;BME280;50187;50.492;12.134;2022-10-28T12:35:31;98201.94;;;22.22;46.13
20160;BME280;50187;50.492;12.134;2022-10-28T12:38:24;98199.22;;;22.22;45.69
20160;BME280;50187;50.492;12.134;2022-10-28T12:41:19;98201.22;;;22.12;45.97
20160;BME280;50187;50.492;12.134;2022-10-28T12:44:11;98203.25;;;22.10;46.29
20160;BME280;50187;50.492;12.134;2022-10-28T12:50:23;98201.00;;;22.05;46.63
20160;BME280;50187;50.492;12.134;2022-10-28T12:53:23;98194.72;;;22.05;46.55
20160;BME280;50187;50.492;12.134;2022-10-28T12:56:30;98196.75;;;22.03;46.61
20160;BME280;50187;50.492;12.134;2022-10-28T12:59:23;98197.75;;;22.02;46.65
20160;BME280;50187;50.492;12.134;2022-10-28T13:02:16;98203.50;;;21.99;46.50
20160;BME280;50187;50.492;12.134;2022-10-28T13:05:05;98204.66;;;21.96;46.73
20160;BME280;50187;50.492;12.134;2022-10-28T13:18:02;98197.88;;;21.92;47.00
20160;BME280;50187;50.492;12.134;2022-10-28T13:26:50;98196.47;;;21.88;46.75
20160;BME280;50187;50.492;12.134;2022-10-28T13:29:36;98201.75;;;21.89;46.82
20160;BME280;50187;50.492;12.134;2022-10-28T13:38:01;98203.06;;;21.85;46.84
20160;BME280;50187;50.492;12.134;2022-10-28T13:41:15;98197.81;;;21.84;46.81
20160;BME280;50187;50.492;12.134;2022-10-28T13:46:58;98200.66;;;21.82;46.84
20160;BME280;50187;50.492;12.134;2022-10-28T13:56:24;98190.16;;;21.79;46.88
20160;BME280;50187;50.492;12.134;2022-10-28T14:05:14;98194.19;;;21.75;46.87
20160;BME280;50187;50.492;12.134;2022-10-28T14:08:02;98197.06;;;21.73;47.01
20160;BME280;50187;50.492;12.134;2022-10-28T14:13:54;98197.38;;;21.70;46.85
20160;BME280;50187;50.492;12.134;2022-10-28T14:16:42;98190.41;;;21.68;47.16
20160;BME280;50187;50.492;12.134;2022-10-28T14:19:28;98202.09;;;21.68;46.77
20160;BME280;50187;50.492;12.134;2022-10-28T14:22:27;98201.25;;;21.68;47.07
20160;BME280;50187;50.492;12.134;2022-10-28T14:34:28;98192.41;;;21.66;46.99
20160;BME280;50187;50.492;12.134;2022-10-28T14:37:24;98192.56;;;21.64;47.07
20160;BME280;50187;50.492;12.134;2022-10-28T14:40:30;98198.16;;;21.63;46.96
20160;BME280;50187;50.492;12.134;2022-10-28T14:43:37;98183.78;;;21.62;47.29
20160;BME280;50187;50.492;12.134;2022-10-28T14:47:15;98186.63;;;21.60;47.29
20160;BME280;50187;50.492;12.134;2022-10-28T14:49:40;98185.78;;;21.60;47.13
20160;BME280;50187;50.492;12.134;2022-10-28T14:52:35;98194.75;;;21.60;47.23
20160;BME280;50187;50.492;12.134;2022-10-28T14:58:34;98180.66;;;21.57;47.58
20160;BME280;50187;50.492;12.134;2022-10-28T15:01:23;98190.34;;;21.59;47.42
20160;BME280;50187;50.492;12.134;2022-10-28T15:04:12;98185.78;;;21.60;47.46
20160;BME280;50187;50.492;12.134;2022-10-28T15:06:58;98190.34;;;21.59;47.71
20160;BME280;50187;50.492;12.134;2022-10-28T15:09:45;98181.50;;;21.57;47.70
20160;BME280;50187;50.492;12.134;2022-10-28T15:12:32;98184.94;;;21.59;47.46
20160;BME280;50187;50.492;12.134;2022-10-28T15:15:22;98185.78;;;21.60;47.79
20160;BME280;50187;50.492;12.134;2022-10-28T15:18:23;98183.22;;;21.58;47.67
20160;BME280;50187;50.492;12.134;2022-10-28T15:21:10;98183.53;;;21.55;47.52
20160;BME280;50187;50.492;12.134;2022-10-28T15:23:59;98179.84;;;21.56;47.60
20160;BME280;50187;50.492;12.134;2022-10-28T15:26:52;98189.50;;;21.59;47.65
20160;BME280;50187;50.492;12.134;2022-10-28T15:29:37;98184.09;;;21.59;47.81
20160;BME280;50187;50.492;12.134;2022-10-28T15:32:28;98176.97;;;21.58;48.14
20160;BME280;50187;50.492;12.134;2022-10-28T15:44:36;98173.88;;;21.53;47.17
20160;BME280;50187;50.492;12.134;2022-10-28T15:47:28;98170.59;;;21.49;47.08
20160;BME280;50187;50.492;12.134;2022-10-28T15:56:07;98173.94;;;21.43;46.95
20160;BME280;50187;50.492;12.134;2022-10-28T16:01:48;98175.94;;;21.41;46.79
20160;BME280;50187;50.492;12.134;2022-10-28T16:04:41;98174.25;;;21.40;46.71
20160;BME280;50187;50.492;12.134;2022-10-28T16:07:27;98181.69;;;21.38;46.77
20160;BME280;50187;50.492;12.134;2022-10-28T16:10:13;98171.13;;;21.35;46.86
20160;BME280;50187;50.492;12.134;2022-10-28T16:12:59;98172.00;;;21.35;46.61
20160;BME280;50187;50.492;12.134;2022-10-28T16:15:49;98177.59;;;21.34;46.76
20160;BME280;50187;50.492;12.134;2022-10-28T16:18:40;98182.28;;;21.32;46.85
20160;BME280;50187;50.492;12.134;2022-10-28T16:21:27;98179.56;;;21.32;46.84
20160;BME280;50187;50.492;12.134;2022-10-28T16:24:12;98181.59;;;21.30;46.86
20160;BME280;50187;50.492;12.134;2022-10-28T16:27:16;98178.19;;;21.27;46.81
20160;BME280;50187;50.492;12.134;2022-10-28T16:30:02;98180.88;;;21.27;46.56
20160;BME280;50187;50.492;12.134;2022-10-28T16:32:48;98179.22;;;21.26;46.88
20160;BME280;50187;50.492;12.134;2022-10-28T16:35:33;98186.47;;;21.26;46.82
20160;BME280;50187;50.492;12.134;2022-10-28T16:38:18;98182.03;;;21.25;46.81
20160;BME280;50187;50.492;12.134;2022-10-28T16:41:05;98184.06;;;21.23;46.67
20160;BME280;50187;50.492;12.134;2022-10-28T16:43:50;98183.22;;;21.22;46.77
20160;BME280;50187;50.492;12.134;2022-10-28T16:46:37;98177.97;;;21.21;46.82
20160;BME280;50187;50.492;12.134;2022-10-28T16:49:22;98180.81;;;21.19;46.49
20160;BME280;50187;50.492;12.134;2022-10-28T16:52:13;98174.41;;;21.20;46.78
20160;BME280;50187;50.492;12.134;2022-10-28T16:54:59;98176.41;;;21.18;46.62
20160;BME280;50187;50.492;12.134;2022-10-28T16:57:44;98178.09;;;21.19;46.83
20160;BME280;50187;50.492;12.134;2022-10-28T17:00:29;98174.72;;;21.17;46.83
20160;BME280;50187;50.492;12.134;2022-10-28T17:03:14;98166.75;;;21.16;46.82
20160;BME280;50187;50.492;12.134;2022-10-28T17:05:59;98172.31;;;21.14;46.74
20160;BME280;50187;50.492;12.134;2022-10-28T17:08:44;98172.47;;;21.13;46.80
20160;BME280;50187;50.492;12.134;2022-10-28T17:11:49;98170.75;;;21.12;46.83
20160;BME280;50187;50.492;12.134;2022-10-28T17:14:34;98177.00;;;21.12;46.69
20160;BME280;50187;50.492;12.134;2022-10-28T17:17:19;98163.81;;;21.09;46.84
20160;BME280;50187;50.492;12.134;2022-10-28T17:20:05;98168.22;;;21.10;46.61
20160;BME280;50187;50.492;12.134;2022-10-28T17:22:51;98169.22;;;21.09;46.99
20160;BME280;50187;50.492;12.134;2022-10-28T17:25:37;98172.91;;;21.08;46.71